^^
Grace C. Lehan Memorial Weather Station Historical Data
Daily Summary for August 17, 2022 Units:  English    Metric   Both
Daily Weekly Monthly Yearly
  High: Low: Average:
Temperature: 79.8 °F 64.6 °F 71.3 °F
Dew Point: 65.7 °F 56.5 °F 60.9 °F
Humidity: 93% 51.1% 71%
Wind Speed: 4mph 0mph 0.3mph
Wind Gust: 16mph - -
Wind- - South
Pressure: 30.00 in 29.85 in -
Precipitation: 0.05 in    
 
 
Tabular Data for August 17, 2022
Time Temperature Dew Point Pressure Wind Wind Speed Wind Gust Humidity Rainfall Rate (Hourly) solar
00:00 72.3 °F 56.7 °F 30.00 in Calm   9 mph 58% 0.00 in 0 W/m2
00:09 72.2 °F 56.6 °F 30.00 in East 1.1 mph 5 mph 58% 0.00 in 0 W/m2
00:14 72.1 °F 56.5 °F 30.00 in East 0.1 mph 5 mph 58% 0.00 in 0 W/m2
00:19 72 °F 56.6 °F 30.00 in East 0.9 mph 6 mph 58.3% 0.00 in 0 W/m2
00:24 71.9 °F 56.5 °F 30.00 in ENE 0.7 mph 6 mph 58.5% 0.00 in 0 W/m2
00:29 71.8 °F 56.7 °F 30.00 in ENE 0.4 mph 6 mph 59% 0.00 in 0 W/m2
00:34 71.7 °F 56.6 °F 30.00 in ENE 1.4 mph 6 mph 59% 0.00 in 0 W/m2
00:39 71.6 °F 56.6 °F 30.00 in ENE 0.1 mph 6 mph 59.2% 0.00 in 0 W/m2
00:44 71.6 °F 56.9 °F 30.00 in Calm   6 mph 59.8% 0.00 in 0 W/m2
00:49 71.5 °F 56.9 °F 30.00 in Calm   6 mph 60% 0.00 in 0 W/m2
00:54 71.4 °F 56.8 °F 30.00 in ENE 0.3 mph 6 mph 60% 0.00 in 0 W/m2
00:59 71.3 °F 56.9 °F 30.00 in ENE 0.1 mph 6 mph 60.3% 0.00 in 0 W/m2
01:04 71.2 °F 56.8 °F 30.00 in Calm   6 mph 60.3% 0.00 in 0 W/m2
01:09 71.2 °F 57.1 °F 30.00 in Calm     61% 0.00 in 0 W/m2
01:14 71.1 °F 57 °F 29.99 in ENE 0.3 mph 4 mph 61% 0.00 in 0 W/m2
01:19 70.9 °F 57.3 °F 29.99 in ENE 0.2 mph 4 mph 62% 0.00 in 0 W/m2
01:24 70.8 °F 57.2 °F 29.99 in Calm   4 mph 62% 0.00 in 0 W/m2
01:29 70.7 °F 57.1 °F 29.99 in Calm   4 mph 62% 0.00 in 0 W/m2
01:34 70.6 °F 57.1 °F 29.98 in Calm   4 mph 62.3% 0.00 in 0 W/m2
01:39 70.6 °F 57.4 °F 29.98 in Calm     63% 0.00 in 0 W/m2
01:44 70.4 °F 57.3 °F 29.98 in ENE 0.4 mph 4 mph 63% 0.00 in 0 W/m2
01:49 70.4 °F 57.2 °F 29.98 in Calm   4 mph 63% 0.00 in 0 W/m2
01:54 70.3 °F 57.1 °F 29.98 in Calm   4 mph 63% 0.00 in 0 W/m2
01:59 70.2 °F 57 °F 29.98 in Calm   4 mph 63% 0.00 in 0 W/m2
02:04 70.2 °F 57.1 °F 29.98 in Calm   4 mph 63.2% 0.00 in 0 W/m2
02:09 70.1 °F 57.1 °F 29.98 in Calm     63.4% 0.00 in 0 W/m2
02:14 70.1 °F 57.4 °F 29.98 in Calm     64% 0.00 in 0 W/m2
02:19 70 °F 57.3 °F 29.97 in Calm     64% 0.00 in 0 W/m2
02:24 69.9 °F 57.2 °F 29.97 in Calm     64% 0.00 in 0 W/m2
02:29 69.9 °F 57.2 °F 29.97 in Calm     64% 0.00 in 0 W/m2
02:34 69.8 °F 57.1 °F 29.97 in Calm     64.1% 0.00 in 0 W/m2
02:39 69.7 °F 57.4 °F 29.97 in Calm     65% 0.00 in 0 W/m2
02:44 69.6 °F 57.4 °F 29.98 in Calm     65% 0.00 in 0 W/m2
02:49 69.5 °F 57.4 °F 29.98 in Calm     65.2% 0.00 in 0 W/m2
02:54 69.5 °F 57.7 °F 29.97 in Calm     66.2% 0.00 in 0 W/m2
02:59 69.4 °F 58 °F 29.97 in Calm     67.2% 0.00 in 0 W/m2
03:04 69.3 °F 58 °F 29.97 in Calm     67.3% 0.00 in 0 W/m2
03:09 69.1 °F 58.3 °F 29.97 in Calm     68.3% 0.00 in 0 W/m2
03:14 69 °F 58.4 °F 29.97 in Calm     68.8% 0.00 in 0 W/m2
03:19 68.9 °F 58.3 °F 29.97 in Calm     69% 0.00 in 0 W/m2
03:24 68.8 °F 58.3 °F 29.97 in Calm     69% 0.00 in 0 W/m2
03:29 68.7 °F 58.3 °F 29.97 in Calm     69.4% 0.00 in 0 W/m2
03:34 68.6 °F 58.4 °F 29.97 in Calm     70% 0.00 in 0 W/m2
03:39 68.5 °F 58.4 °F 29.97 in Calm     70% 0.00 in 0 W/m2
03:44 68.4 °F 58.3 °F 29.97 in Calm     70% 0.00 in 0 W/m2
03:49 68.4 °F 58.2 °F 29.97 in Calm     70% 0.00 in 0 W/m2
03:54 68.3 °F 58.4 °F 29.97 in Calm     70.7% 0.00 in 0 W/m2
03:59 68.2 °F 58.3 °F 29.97 in Calm     70.6% 0.00 in 0 W/m2
04:00 68.2 °F 58.4 °F 29.97 in Calm     71% 0.00 in 0 W/m2
04:09 68 °F 58.3 °F 29.97 in Calm     71% 0.00 in 0 W/m2
04:14 68 °F 58.4 °F 29.97 in Calm     71.3% 0.00 in 0 W/m2
04:19 67.9 °F 58.5 °F 29.97 in Calm     72% 0.00 in 0 W/m2
04:24 67.8 °F 58.4 °F 29.97 in Calm     72% 0.00 in 0 W/m2
04:29 67.7 °F 58.4 °F 29.96 in Calm     72% 0.00 in 0 W/m2
04:34 67.6 °F 58.3 °F 29.96 in Calm     72% 0.00 in 0 W/m2
04:39 67.6 °F 58.2 °F 29.96 in Calm     72% 0.00 in 0 W/m2
04:44 67.5 °F 58.2 °F 29.96 in Calm     72% 0.00 in 0 W/m2
04:49 67.5 °F 58.4 °F 29.97 in Calm     72.6% 0.00 in 0 W/m2
04:54 67.4 °F 58.5 °F 29.97 in Calm     73% 0.00 in 0 W/m2
04:59 67.4 °F 58.6 °F 29.97 in Calm     73.3% 0.00 in 0 W/m2
05:04 67.4 °F 59 °F 29.97 in Calm     74.6% 0.00 in 0 W/m2
05:09 67.3 °F 59.1 °F 29.97 in Calm     75% 0.00 in 0 W/m2
05:14 67.2 °F 59.3 °F 29.97 in Calm     75.7% 0.00 in 0 W/m2
05:19 67.1 °F 59.7 °F 29.97 in Calm     77.2% 0.00 in 0 W/m2
05:24 66.8 °F 59.8 °F 29.97 in Calm     78% 0.00 in 0 W/m2
05:29 66.5 °F 59.4 °F 29.97 in Calm     78% 0.00 in 0 W/m2
05:34 66.1 °F 59.3 °F 29.97 in Calm     78.7% 0.00 in 0 W/m2
05:39 65.9 °F 59.9 °F 29.97 in Calm     80.8% 0.00 in 0 W/m2
05:44 65.8 °F 60.2 °F 29.97 in Calm     82% 0.01 in 0 W/m2
05:49 65.7 °F 60.1 °F 29.97 in Calm     82.2% 0.01 in 0 W/m2
05:54 65.5 °F 60.2 °F 29.97 in Calm     83% 0.01 in 0 W/m2
05:59 65.4 °F 60.3 °F 29.97 in Calm     83.8% 0.01 in 0 W/m2
06:04 65.3 °F 60.6 °F 29.97 in Calm     84.8% 0.01 in 0 W/m2
06:09 65.2 °F 60.6 °F 29.97 in Calm     85% 0.01 in 0 W/m2
06:14 65.1 °F 60.5 °F 29.97 in Calm     85% 0.02 in 0 W/m2
06:19 65 °F 60.7 °F 29.98 in Calm     85.9% 0.02 in 0 W/m2
06:24 65 °F 60.8 °F 29.98 in Calm     86.2% 0.02 in 7 W/m2
06:29 64.9 °F 60.9 °F 29.98 in Calm     87% 0.02 in 11 W/m2
06:34 64.9 °F 61 °F 29.98 in Calm     87.2% 0.02 in 11 W/m2
06:39 64.9 °F 61.2 °F 29.98 in Calm     88% 0.02 in 11 W/m2
06:44 64.8 °F 61.2 °F 29.98 in Calm     88% 0.02 in 9 W/m2
06:49 64.8 °F 61.5 °F 29.98 in Calm     88.9% 0.02 in 14 W/m2
06:54 64.8 °F 61.5 °F 29.98 in Calm     89% 0.03 in 14 W/m2
06:59 64.7 °F 61.4 °F 29.98 in Calm     89% 0.03 in 18 W/m2
07:04 64.6 °F 61.3 °F 29.98 in Calm     89% 0.03 in 23 W/m2
07:09 64.6 °F 61.3 °F 29.98 in Calm     89% 0.02 in 25 W/m2
07:14 64.6 °F 61.5 °F 29.98 in Calm     89.8% 0.02 in 25 W/m2
07:19 64.6 °F 61.6 °F 29.98 in Calm     90% 0.02 in 33 W/m2
07:24 64.7 °F 61.7 °F 29.98 in Calm     90% 0.02 in 33 W/m2
07:29 64.6 °F 61.6 °F 29.98 in Calm     90% 0.02 in 23 W/m2
07:34 64.7 °F 61.7 °F 29.98 in Calm     90% 0.02 in 23 W/m2
07:39 64.7 °F 61.7 °F 29.98 in Calm     90% 0.02 in 35 W/m2
07:44 64.8 °F 62.1 °F 29.98 in Calm     91% 0.02 in 35 W/m2
07:49 64.9 °F 62.2 °F 29.98 in Calm     91% 0.03 in 23 W/m2
07:54 65 °F 62.4 °F 29.98 in Calm     91% 0.03 in 28 W/m2
07:59 65.1 °F 62.6 °F 29.98 in Calm     91.6% 0.03 in 30 W/m2
08:09 65.1 °F 62.7 °F 29.98 in Calm     92% 0.03 in 42 W/m2
08:14 65.1 °F 62.7 °F 29.98 in Calm     92% 0.03 in 47 W/m2
08:19 65.1 °F 62.7 °F 29.98 in Calm     92% 0.03 in 58 W/m2
08:24 65.2 °F 62.8 °F 29.98 in Calm     92% 0.03 in 83 W/m2
08:29 65.3 °F 63.1 °F 29.98 in Calm     92.6% 0.03 in 88 W/m2
08:34 65.5 °F 63.5 °F 29.98 in Calm     93% 0.03 in 88 W/m2
08:39 65.7 °F 63.6 °F 29.98 in Calm     93% 0.02 in 79 W/m2
08:44 65.9 °F 63.8 °F 29.98 in Calm     93% 0.02 in 72 W/m2
08:49 66 °F 63.9 °F 29.97 in Calm     93% 0.02 in 76 W/m2
08:54 66 °F 63.9 °F 29.98 in Calm     93% 0.02 in 77 W/m2
08:59 65.9 °F 63.7 °F 29.98 in Calm     92.6% 0.02 in 81 W/m2
09:04 65.8 °F 63.4 °F 29.97 in Calm     92% 0.02 in 79 W/m2
09:09 65.7 °F 63.3 °F 29.97 in Calm     92% 0.00 in 88 W/m2
09:14 65.8 °F 63.5 °F 29.97 in Calm     92% 0.00 in 109 W/m2
09:19 66 °F 63.9 °F 29.97 in Calm     92.8% 0.00 in 118 W/m2
09:24 66.2 °F 63.9 °F 29.97 in Calm     92% 0.00 in 116 W/m2
09:29 66.3 °F 63.9 °F 29.97 in Calm     92% 0.00 in 95 W/m2
09:34 66.3 °F 63.8 °F 29.97 in Calm     91.6% 0.00 in 118 W/m2
09:39 66.4 °F 64 °F 29.97 in Calm     92% 0.00 in 116 W/m2
09:44 66.6 °F 64.2 °F 29.97 in Calm     92% 0.00 in 134 W/m2
09:49 66.8 °F 64.4 °F 29.97 in Calm     92% 0.00 in 146 W/m2
09:54 67.1 °F 64.7 °F 29.97 in Calm     92% 0.00 in 167 W/m2
09:59 67.4 °F 65 °F 29.97 in Calm     92% 0.00 in 190 W/m2
10:04 67.7 °F 65.2 °F 29.97 in Calm     91.7% 0.00 in 223 W/m2
10:09 67.9 °F 65.1 °F 29.97 in Calm     90.8% 0.00 in 244 W/m2
10:14 68.1 °F 64.9 °F 29.97 in Calm     89.6% 0.00 in 262 W/m2
10:19 68.4 °F 65 °F 29.97 in Calm     89% 0.00 in 295 W/m2
10:24 68.8 °F 65.4 °F 29.97 in Calm     89% 0.00 in 325 W/m2
10:29 69.2 °F 65.4 °F 29.97 in ENE 0.2 mph 3 mph 87.5% 0.00 in 329 W/m2
10:34 69.6 °F 65.1 °F 29.97 in ENE 0.2 mph 3 mph 85.6% 0.00 in 352 W/m2
10:39 70.1 °F 65.2 °F 29.97 in NE 0.2 mph 3 mph 84.3% 0.00 in 425 W/m2
10:44 70.8 °F 65.2 °F 29.96 in North 0.5 mph 7 mph 82.6% 0.00 in 466 W/m2
10:49 71.5 °F 65.6 °F 29.96 in WNW 0.1 mph 7 mph 81.6% 0.00 in 490 W/m2
10:54 72.2 °F 65.7 °F 29.96 in WNW 0.3 mph 7 mph 80% 0.00 in 490 W/m2
10:59 72.9 °F 65.4 °F 29.96 in WNW 0.3 mph 7 mph 77.2% 0.00 in 499 W/m2
11:04 73.6 °F 65.7 °F 29.96 in NW 1.5 mph 7 mph 76.2% 0.00 in 526 W/m2
11:09 74.2 °F 65 °F 29.96 in NW 1.6 mph 11 mph 72.9% 0.00 in 613 W/m2
11:14 74.8 °F 65.2 °F 29.96 in Calm   11 mph 72% 0.00 in 598 W/m2
11:19 75.5 °F 65.6 °F 29.95 in Calm   11 mph 71.5% 0.00 in 608 W/m2
11:24 76 °F 64.8 °F 29.95 in NW 0.3 mph 11 mph 68.3% 0.00 in 504 W/m2
11:29 75.9 °F 64.5 °F 29.95 in NW 0.1 mph 11 mph 67.7% 0.00 in 482 W/m2
11:34 75.9 °F 64.3 °F 29.95 in NW 0.1 mph 11 mph 67.3% 0.00 in 524 W/m2
11:39 76 °F 64.5 °F 29.95 in NW 0.2 mph 5 mph 67.4% 0.00 in 673 W/m2
11:44 76.4 °F 64.1 °F 29.95 in NE 0.6 mph 8 mph 65.8% 0.00 in 671 W/m2
11:49 76.6 °F 63.4 °F 29.95 in ENE 1.1 mph 8 mph 63.8% 0.00 in 473 W/m2
11:54 76.6 °F 63.7 °F 29.95 in ENE 0.1 mph 8 mph 64.4% 0.00 in 413 W/m2
11:59 76.7 °F 63.7 °F 29.95 in ENE 0.9 mph 8 mph 64.1% 0.00 in 464 W/m2
12:00 76.8 °F 63.7 °F 29.95 in NNE 4 mph 8 mph 64% 0.00 in 464 W/m2
12:09 76.7 °F 62.5 °F 29.94 in ENE 1.2 mph 6 mph 61.5% 0.00 in 482 W/m2
12:14 76.8 °F 62.5 °F 29.94 in ENE 2 mph 7 mph 61.3% 0.00 in 512 W/m2
12:19 77.1 °F 62.8 °F 29.94 in NE 1 mph 9 mph 61.5% 0.00 in 540 W/m2
12:24 77.3 °F 62.9 °F 29.94 in NNW 1.5 mph 9 mph 61.3% 0.00 in 411 W/m2
12:29 77.4 °F 62.9 °F 29.94 in ENE 0.1 mph 9 mph 60.9% 0.00 in 374 W/m2
12:34 77.6 °F 63.2 °F 29.94 in NE 1.1 mph 9 mph 61.2% 0.00 in 362 W/m2
12:39 77.5 °F 62.6 °F 29.94 in East 0.6 mph 6 mph 60.2% 0.00 in 394 W/m2
12:44 77.5 °F 62.8 °F 29.94 in NE 0.2 mph 6 mph 60.6% 0.00 in 492 W/m2
12:49 77.5 °F 62.8 °F 29.94 in North 0.8 mph 6 mph 60.4% 0.00 in 492 W/m2
12:54 77.8 °F 63.1 °F 29.94 in North 0.7 mph 6 mph 60.7% 0.00 in 476 W/m2
12:59 78.1 °F 63 °F 29.94 in NW 0.6 mph 6 mph 59.9% 0.00 in 504 W/m2
13:04 78.4 °F 63.2 °F 29.94 in WNW 0.8 mph 6 mph 59.7% 0.00 in 603 W/m2
13:09 78.8 °F 63.5 °F 29.93 in WNW 0.5 mph 6 mph 59.5% 0.00 in 603 W/m2
13:14 79.1 °F 63.9 °F 29.93 in WNW 1 mph 6 mph 59.7% 0.00 in 485 W/m2
13:19 79.2 °F 63.1 °F 29.93 in NW 1 mph 7 mph 57.9% 0.00 in 450 W/m2
13:24 79.2 °F 62.3 °F 29.93 in Calm   7 mph 56.3% 0.00 in 396 W/m2
13:29 79.2 °F 62.1 °F 29.93 in ENE 0.5 mph 7 mph 55.9% 0.00 in 540 W/m2
13:34 79.1 °F 62.2 °F 29.92 in North 1.2 mph 9 mph 56.4% 0.00 in 559 W/m2
13:39 79.2 °F 62.3 °F 29.92 in NE 1.1 mph 9 mph 56.3% 0.00 in 461 W/m2
13:44 79.3 °F 61.4 °F 29.92 in NNE 0.4 mph 9 mph 54.3% 0.00 in 480 W/m2
13:49 79.4 °F 60.8 °F 29.92 in WNW 1 mph 9 mph 53% 0.00 in 482 W/m2
13:54 79.5 °F 61.4 °F 29.92 in NNW 0.5 mph 9 mph 53.9% 0.00 in 403 W/m2
13:59 79.7 °F 60.5 °F 29.92 in NNW 0.3 mph 9 mph 51.9% 0.00 in 403 W/m2
14:04 79.7 °F 60.3 °F 29.92 in NNW 0.9 mph 9 mph 51.5% 0.00 in 399 W/m2
14:09 79.7 °F 60.3 °F 29.91 in NW 1.3 mph 9 mph 51.6% 0.00 in 329 W/m2
14:14 79.7 °F 60.4 °F 29.91 in North 0.2 mph 9 mph 51.7% 0.00 in 325 W/m2
14:19 79.8 °F 60.4 °F 29.91 in North 0.3 mph 9 mph 51.6% 0.00 in 290 W/m2
14:24 79.8 °F 60.1 °F 29.91 in NNE 0.1 mph 9 mph 51.1% 0.00 in 248 W/m2
14:29 79.6 °F 60.6 °F 29.91 in NNE 0.9 mph 11 mph 52.3% 0.00 in 213 W/m2
14:34 79.3 °F 62 °F 29.91 in NNW 1.4 mph 11 mph 55.6% 0.00 in 206 W/m2
14:39 78.8 °F 62.9 °F 29.91 in NNE 0.6 mph 10 mph 58.3% 0.00 in 206 W/m2
14:44 78 °F 62.7 °F 29.90 in NE 1 mph 10 mph 59.3% 0.00 in 199 W/m2
14:49 77.4 °F 61.7 °F 29.90 in ENE 1.4 mph 10 mph 58.3% 0.00 in 195 W/m2
14:54 76.7 °F 62.5 °F 29.90 in ENE 0.8 mph 10 mph 61.7% 0.00 in 239 W/m2
14:59 75.7 °F 63.1 °F 29.90 in Calm   10 mph 64.9% 0.00 in 239 W/m2
15:04 75.3 °F 64.1 °F 29.90 in Calm   10 mph 68.2% 0.00 in 216 W/m2
15:09 75.1 °F 63.9 °F 29.90 in Calm     68.1% 0.00 in 214 W/m2
15:14 75.2 °F 64.4 °F 29.90 in Calm   1 mph 69.3% 0.00 in 206 W/m2
15:19 75.3 °F 64 °F 29.90 in Calm   1 mph 68.1% 0.00 in 178 W/m2
15:24 75.4 °F 64.6 °F 29.90 in Calm   1 mph 69.2% 0.00 in 315 W/m2
15:29 75.8 °F 64.8 °F 29.90 in Calm   1 mph 68.9% 0.00 in 816 W/m2
15:34 76.5 °F 65.3 °F 29.90 in ENE 0.1 mph 1 mph 68.4% 0.00 in 872 W/m2
15:39 77.2 °F 64.5 °F 29.90 in ENE 1.3 mph 8 mph 65% 0.00 in 311 W/m2
15:44 77.4 °F 62.9 °F 29.90 in ENE 1.3 mph 8 mph 61.1% 0.00 in 264 W/m2
15:49 77.4 °F 63 °F 29.90 in ENE 0.3 mph 8 mph 61.2% 0.00 in 244 W/m2
15:54 77.3 °F 62.9 °F 29.90 in East 1.3 mph 8 mph 61.2% 0.00 in 211 W/m2
15:59 77.1 °F 62.9 °F 29.90 in ENE 2.1 mph 8 mph 61.6% 0.00 in 251 W/m2
16:00 77.1 °F 63.1 °F 29.90 in NE 2 mph 8 mph 62% 0.00 in 236 W/m2
16:09 76.9 °F 63 °F 29.90 in NE 0.2 mph 4 mph 62.2% 0.00 in 234 W/m2
16:14 76.9 °F 63.2 °F 29.90 in ENE 1.5 mph 10 mph 62.7% 0.00 in 232 W/m2
16:19 76.9 °F 62.3 °F 29.90 in ENE 0.9 mph 10 mph 60.8% 0.00 in 221 W/m2
16:24 76.7 °F 62.1 °F 29.90 in ENE 2.4 mph 10 mph 60.7% 0.00 in 206 W/m2
16:29 76.6 °F 60.8 °F 29.90 in East 1.1 mph 10 mph 58.2% 0.00 in 225 W/m2
16:34 76.5 °F 59.9 °F 29.90 in NE 2.2 mph 10 mph 56.4% 0.00 in 227 W/m2
16:39 76.5 °F 59.6 °F 29.90 in NE 1 mph 9 mph 55.9% 0.00 in 221 W/m2
16:44 76.4 °F 59.1 °F 29.90 in ENE 0.5 mph 9 mph 55% 0.00 in 221 W/m2
16:49 76.4 °F 59.8 °F 29.90 in ENE 0.5 mph 9 mph 56.5% 0.00 in 207 W/m2
16:54 76.4 °F 59.9 °F 29.90 in ENE 1 mph 9 mph 56.7% 0.00 in 199 W/m2
16:59 76.5 °F 60.5 °F 29.90 in NE 0.4 mph 9 mph 57.6% 0.00 in 193 W/m2
17:04 76.5 °F 60.6 °F 29.90 in ENE 1.2 mph 9 mph 57.8% 0.00 in 190 W/m2
17:09 76.5 °F 60.6 °F 29.90 in NE 0.6 mph 6 mph 58% 0.00 in 179 W/m2
17:14 76.4 °F 60.6 °F 29.90 in ENE 1.2 mph 6 mph 58% 0.00 in 171 W/m2
17:19 76.3 °F 60.5 °F 29.89 in ENE 1.4 mph 7 mph 58% 0.00 in 156 W/m2
17:24 76.1 °F 60.2 °F 29.89 in ENE 1.3 mph 7 mph 57.8% 0.00 in 144 W/m2
17:29 76 °F 60.3 °F 29.89 in ENE 2.5 mph 7 mph 58.3% 0.00 in 141 W/m2
17:34 75.8 °F 60.2 °F 29.90 in NE 1.3 mph 7 mph 58.4% 0.00 in 123 W/m2
17:39 75.7 °F 60.3 °F 29.89 in ENE 0.9 mph 7 mph 58.9% 0.00 in 120 W/m2
17:44 75.6 °F 60.2 °F 29.89 in NW 0.4 mph 7 mph 58.9% 0.00 in 113 W/m2
17:49 75.5 °F 60.3 °F 29.90 in NE 0.7 mph 7 mph 59.2% 0.00 in 116 W/m2
17:54 75.4 °F 60.2 °F 29.90 in NE 1.4 mph 7 mph 59.2% 0.00 in 116 W/m2
17:59 75.3 °F 60.4 °F 29.90 in North 0.4 mph 7 mph 59.9% 0.00 in 114 W/m2
18:04 75.2 °F 60.7 °F 29.89 in North 0.9 mph 7 mph 60.8% 0.00 in 109 W/m2
18:09 75.1 °F 60.8 °F 29.89 in ENE 1.3 mph 5 mph 61% 0.00 in 97 W/m2
18:14 74.9 °F 60.6 °F 29.89 in NE 0.1 mph 5 mph 61% 0.00 in 86 W/m2
18:19 74.7 °F 61 °F 29.90 in North 0.8 mph 6 mph 62.3% 0.00 in 63 W/m2
18:24 74.6 °F 61.1 °F 29.90 in NNW 0.5 mph 7 mph 62.9% 0.00 in 53 W/m2
18:29 74.4 °F 61 °F 29.90 in NNW 0.4 mph 7 mph 63% 0.00 in 44 W/m2
18:34 74.3 °F 61.5 °F 29.90 in NNW 0.4 mph 7 mph 64.4% 0.00 in 35 W/m2
18:39 74.1 °F 62 °F 29.90 in NNW 1.1 mph 7 mph 65.8% 0.00 in 28 W/m2
18:44 74 °F 62.3 °F 29.90 in NW 0.2 mph 7 mph 66.9% 0.00 in 25 W/m2
18:49 73.8 °F 62.6 °F 29.90 in NW 0.6 mph 8 mph 67.9% 0.00 in 23 W/m2
18:54 73.6 °F 62.4 °F 29.90 in NW 0.1 mph 8 mph 68% 0.00 in 19 W/m2
18:59 73.4 °F 62.1 °F 29.90 in NNW 0.6 mph 8 mph 67.7% 0.00 in 19 W/m2
19:04 73.1 °F 61.5 °F 29.90 in NNW 0.4 mph 8 mph 67% 0.00 in 19 W/m2
19:09 72.9 °F 61.3 °F 29.90 in NNW 0.7 mph 6 mph 67% 0.00 in 14 W/m2
19:14 72.7 °F 61.1 °F 29.90 in NNW 0.5 mph 6 mph 67% 0.00 in 12 W/m2
19:19 72.5 °F 60.6 °F 29.90 in NW 0.5 mph 6 mph 66.2% 0.00 in 11 W/m2
19:24 72.3 °F 60.4 °F 29.90 in Calm   6 mph 66.2% 0.00 in 5 W/m2
19:29 72.1 °F 60.6 °F 29.90 in Calm   6 mph 67% 0.00 in 0 W/m2
19:34 72 °F 60.5 °F 29.90 in NW 0.9 mph 6 mph 67.2% 0.00 in 0 W/m2
19:39 71.8 °F 60.5 °F 29.90 in NW 0.1 mph 3 mph 67.6% 0.00 in 0 W/m2
19:44 71.6 °F 60.5 °F 29.90 in NW 0.2 mph 4 mph 68% 0.00 in 0 W/m2
19:49 71.5 °F 60.6 °F 29.90 in NW 0.1 mph 4 mph 68.6% 0.00 in 0 W/m2
19:54 71.4 °F 60.9 °F 29.89 in NW 0.1 mph 4 mph 69.5% 0.00 in 0 W/m2
19:59 71.2 °F 61 °F 29.89 in Calm   4 mph 70% 0.00 in 0 W/m2
20:00 71.2 °F 60.9 °F 29.89 in NW 1 mph 4 mph 70% 0.00 in 0 W/m2
20:09 71 °F 60.7 °F 29.89 in Calm     70% 0.00 in 0 W/m2
20:14 70.8 °F 60.6 °F 29.90 in Calm     70% 0.00 in 0 W/m2
20:19 70.7 °F 60.5 °F 29.90 in Calm     70% 0.00 in 0 W/m2
20:24 70.6 °F 60.4 °F 29.90 in Calm     70% 0.00 in 0 W/m2
20:29 70.6 °F 60.5 °F 29.90 in Calm     70.4% 0.00 in 0 W/m2
20:34 70.5 °F 60.6 °F 29.90 in Calm     71% 0.00 in 0 W/m2
20:39 70.4 °F 60.6 °F 29.90 in NW 0.1 mph 3 mph 71% 0.00 in 0 W/m2
20:44 70.3 °F 60.5 °F 29.90 in Calm   3 mph 71.2% 0.00 in 0 W/m2
20:49 70.2 °F 60.5 °F 29.90 in Calm   3 mph 71.3% 0.00 in 0 W/m2
20:54 70.1 °F 60.6 °F 29.90 in Calm   3 mph 71.8% 0.00 in 0 W/m2
20:59 70 °F 60.5 °F 29.90 in Calm   3 mph 72% 0.00 in 0 W/m2
21:04 69.9 °F 60.4 °F 29.90 in Calm   3 mph 72% 0.00 in 0 W/m2
21:09 69.8 °F 60.5 °F 29.90 in Calm     72.3% 0.00 in 0 W/m2
21:14 69.8 °F 61 °F 29.90 in Calm     73.5% 0.00 in 0 W/m2
21:19 69.8 °F 61.3 °F 29.90 in Calm     74.5% 0.00 in 0 W/m2
21:24 69.7 °F 60.7 °F 29.90 in Calm     73.2% 0.00 in 0 W/m2
21:29 69.6 °F 60.9 °F 29.90 in NW 0.3 mph 4 mph 73.8% 0.00 in 0 W/m2
21:34 69.6 °F 60.9 °F 29.90 in Calm   4 mph 73.7% 0.00 in 0 W/m2
21:39 69.6 °F 60.4 °F 29.89 in NW 0.3 mph 5 mph 72.6% 0.00 in 0 W/m2
21:44 69.6 °F 60.2 °F 29.89 in Calm   5 mph 72% 0.00 in 0 W/m2
21:49 69.7 °F 60.2 °F 29.89 in NW 0.1 mph 5 mph 71.8% 0.00 in 0 W/m2
21:54 69.7 °F 59.9 °F 29.89 in West 0.4 mph 7 mph 71% 0.00 in 0 W/m2
21:59 69.7 °F 59.5 °F 29.89 in Calm   7 mph 70.2% 0.00 in 0 W/m2
22:04 69.6 °F 59.6 °F 29.89 in WSW 0.2 mph 7 mph 70.6% 0.00 in 0 W/m2
22:09 69.5 °F 59.4 °F 29.89 in West 0.1 mph 3 mph 70.2% 0.00 in 0 W/m2
22:14 69.4 °F 59.3 °F 29.89 in Calm   3 mph 70.2% 0.00 in 0 W/m2
22:19 69.3 °F 59.5 °F 29.89 in West 0.1 mph 3 mph 71% 0.00 in 0 W/m2
22:24 69.2 °F 59.4 °F 29.89 in West 0.3 mph 4 mph 71% 0.00 in 0 W/m2
22:29 69 °F 59.3 °F 29.88 in Calm   4 mph 71% 0.00 in 0 W/m2
22:34 68.9 °F 59.5 °F 29.88 in West 0.9 mph 5 mph 71.8% 0.00 in 0 W/m2
22:39 68.8 °F 59.6 °F 29.88 in West 0.1 mph 5 mph 72.3% 0.00 in 0 W/m2
22:44 68.7 °F 59.8 °F 29.88 in Calm   5 mph 73.2% 0.00 in 0 W/m2
22:49 68.5 °F 59.9 °F 29.87 in Calm   5 mph 74% 0.00 in 0 W/m2
22:54 68.4 °F 59.8 °F 29.87 in Calm   5 mph 74% 0.00 in 0 W/m2
22:59 68.2 °F 59.9 °F 29.87 in Calm   5 mph 74.7% 0.00 in 0 W/m2
23:04 68.1 °F 59.6 °F 29.86 in West 0.1 mph 5 mph 74.4% 0.00 in 0 W/m2
23:09 67.9 °F 59.2 °F 29.86 in Calm   3 mph 73.8% 0.00 in 0 W/m2
23:14 67.8 °F 59.2 °F 29.86 in West 0.3 mph 6 mph 73.9% 0.00 in 0 W/m2
23:19 67.7 °F 58.8 °F 29.86 in WNW 0.5 mph 6 mph 73% 0.00 in 0 W/m2
23:24 67.7 °F 58.7 °F 29.86 in WNW 0.8 mph 7 mph 72.8% 0.00 in 0 W/m2
23:29 67.8 °F 58.4 °F 29.85 in WNW 0.5 mph 7 mph 72% 0.00 in 0 W/m2
23:34 67.9 °F 58.5 °F 29.86 in WNW 1.9 mph 16 mph 72% 0.00 in 0 W/m2
23:39 68 °F 58.6 °F 29.86 in WNW 1.3 mph 16 mph 72% 0.00 in 0 W/m2
23:44 68 °F 58.7 °F 29.85 in Calm   16 mph 72% 0.00 in 0 W/m2
23:49 68.1 °F 58.7 °F 29.85 in NW 0.4 mph 16 mph 72% 0.00 in 0 W/m2
23:54 68.1 °F 58.7 °F 29.85 in Calm   16 mph 72% 0.00 in 0 W/m2
23:59 68.1 °F 59.1 °F 29.85 in WNW 1.1 mph 16 mph 72.9% 0.00 in 0 W/m2
Hartford County Weather
Compliments of Weather Underground - 4 mb